Time;durP1;ratioP1;P1;durP2;ratioP2;P2;SDS_P1;SDS_P2;PMS_P1;PMS_P2;Temp;Humidity;BMP_temperature;BMP_pressure;BME280_temperature;BME280_humidity;BME280_pressure;Samples;Min_cycle;Max_cycle;Signal;HPM_P1;HPM_P2
2022/10/05 00:01:02;;;;;;;6.27;3.57;;;;;;;;;;5091160;28;20313;-80
2022/10/05 00:03:35;;;;;;;3.63;3.07;;;;;;;;;;5093045;28;20744;-80
2022/10/05 00:06:03;;;;;;;4.67;3.13;;;;;;;;;;5076238;28;20202;-81
2022/10/05 00:08:32;;;;;;;4.77;2.80;;;;;;;;;;5075535;28;20227;-80
2022/10/05 00:10:59;;;;;;;3.47;3.03;;;;;;;;;;5074757;28;20293;-80
2022/10/05 00:13:28;;;;;;;5.97;3.47;;;;;;;;;;5074327;28;20289;-80
2022/10/05 00:15:59;;;;;;;3.60;3.07;;;;;;;;;;5092022;28;20282;-80
2022/10/05 00:18:27;;;;;;;3.63;3.10;;;;;;;;;;5094966;28;20616;-80
2022/10/05 00:20:55;;;;;;;4.37;3.03;;;;;;;;;;5087627;28;20281;-81
2022/10/05 00:23:25;;;;;;;5.07;3.27;;;;;;;;;;5074698;28;20223;-81
2022/10/05 00:25:52;;;;;;;4.77;3.10;;;;;;;;;;5075764;28;20223;-81
2022/10/05 00:28:25;;;;;;;4.93;3.57;;;;;;;;;;5076970;28;20306;-80
2022/10/05 00:30:55;;;;;;;3.97;3.17;;;;;;;;;;5077262;28;20238;-80
2022/10/05 00:33:24;;;;;;;4.57;3.30;;;;;;;;;;5078570;28;20282;-80
2022/10/05 00:35:51;;;;;;;7.50;3.63;;;;;;;;;;5077741;28;20278;-80
2022/10/05 00:38:18;;;;;;;4.27;3.50;;;;;;;;;;5091370;28;20282;-80
2022/10/05 00:40:51;;;;;;;3.63;2.90;;;;;;;;;;5084151;28;20642;-80
2022/10/05 00:43:33;;;;;;;4.70;3.13;;;;;;;;;;5088479;28;20282;-80
2022/10/05 00:46:06;;;;;;;4.00;3.40;;;;;;;;;;5072899;28;20230;-80
2022/10/05 00:48:38;;;;;;;5.00;3.67;;;;;;;;;;5087079;28;20210;-80
2022/10/05 00:51:12;;;;;;;5.10;4.03;;;;;;;;;;5079563;28;20289;-80
2022/10/05 00:53:43;;;;;;;5.37;4.20;;;;;;;;;;5084611;28;20231;-80
2022/10/05 00:56:14;;;;;;;7.43;5.03;;;;;;;;;;5084188;28;20285;-80
2022/10/05 00:58:48;;;;;;;5.97;4.97;;;;;;;;;;5091223;28;20230;-79
2022/10/05 01:01:17;;;;;;;8.87;6.27;;;;;;;;;;5084707;28;20206;-79
2022/10/05 01:03:51;;;;;;;9.13;6.53;;;;;;;;;;5074657;28;20214;-81
2022/10/05 01:06:22;;;;;;;8.43;6.30;;;;;;;;;;5082335;28;20229;-79
2022/10/05 01:08:51;;;;;;;8.10;6.50;;;;;;;;;;5087141;28;20261;-80
2022/10/05 01:11:21;;;;;;;9.80;6.67;;;;;;;;;;5087587;28;20281;-81
2022/10/05 01:13:52;;;;;;;7.57;6.23;;;;;;;;;;5084666;28;20229;-80
2022/10/05 01:16:23;;;;;;;9.77;6.70;;;;;;;;;;5086970;28;20733;-80
2022/10/05 01:18:54;;;;;;;8.23;6.27;;;;;;;;;;5088708;28;20688;-80
2022/10/05 01:21:22;;;;;;;9.60;5.97;;;;;;;;;;5092647;28;20241;-80
2022/10/05 01:24:07;;;;;;;9.87;6.30;;;;;;;;;;5078089;28;20202;-80
2022/10/05 01:26:58;;;;;;;10.10;6.67;;;;;;;;;;5091845;28;20289;-80
2022/10/05 01:29:28;;;;;;;9.27;6.57;;;;;;;;;;5076184;28;20318;-80
2022/10/05 01:31:59;;;;;;;7.90;6.20;;;;;;;;;;5081364;28;20285;-80
2022/10/05 01:34:30;;;;;;;8.23;5.63;;;;;;;;;;5092807;28;20285;-80
2022/10/05 01:37:01;;;;;;;9.97;5.70;;;;;;;;;;5078518;28;20289;-80
2022/10/05 01:39:32;;;;;;;8.20;5.67;;;;;;;;;;5077026;28;20222;-80
2022/10/05 01:42:01;;;;;;;7.07;5.43;;;;;;;;;;5078343;28;20673;-80
2022/10/05 01:44:31;;;;;;;8.20;5.53;;;;;;;;;;5082737;28;20281;-80
2022/10/05 01:47:02;;;;;;;8.90;5.67;;;;;;;;;;5089950;28;20233;-80
2022/10/05 01:49:38;;;;;;;7.77;5.60;;;;;;;;;;5092533;28;20222;-80
2022/10/05 01:52:22;;;;;;;7.37;5.17;;;;;;;;;;5086869;28;20297;-80
2022/10/05 01:54:58;;;;;;;8.87;5.80;;;;;;;;;;5086822;28;20236;-80
2022/10/05 01:57:33;;;;;;;7.33;5.37;;;;;;;;;;5086323;28;20284;-80
2022/10/05 02:00:06;;;;;;;8.37;5.03;;;;;;;;;;5072727;28;20321;-80
2022/10/05 02:02:35;;;;;;;7.23;5.10;;;;;;;;;;5073206;28;20207;-80
2022/10/05 02:05:05;;;;;;;7.13;5.07;;;;;;;;;;5083942;28;20281;-81
2022/10/05 02:07:35;;;;;;;6.40;4.80;;;;;;;;;;5083948;28;20286;-80
2022/10/05 02:10:05;;;;;;;7.13;5.17;;;;;;;;;;5082350;28;20286;-80
2022/10/05 02:12:35;;;;;;;6.93;5.20;;;;;;;;;;5077254;28;20281;-80
2022/10/05 02:15:08;;;;;;;5.50;4.87;;;;;;;;;;5081809;28;20692;-80
2022/10/05 02:17:39;;;;;;;6.23;5.10;;;;;;;;;;5073050;28;20195;-80
2022/10/05 02:20:09;;;;;;;5.50;4.90;;;;;;;;;;5088907;28;20285;-81
2022/10/05 02:22:37;;;;;;;7.73;4.57;;;;;;;;;;5083632;28;20278;-80
2022/10/05 02:25:08;;;;;;;6.37;4.73;;;;;;;;;;5080957;28;20207;-80
2022/10/05 02:27:37;;;;;;;5.33;4.30;;;;;;;;;;5072546;28;20285;-80
2022/10/05 02:30:07;;;;;;;7.27;4.47;;;;;;;;;;5089355;28;20309;-80
2022/10/05 02:32:37;;;;;;;4.90;4.13;;;;;;;;;;5077505;28;20248;-79
2022/10/05 02:35:07;;;;;;;5.37;3.97;;;;;;;;;;5075826;28;20289;-80
2022/10/05 02:37:38;;;;;;;4.87;4.10;;;;;;;;;;5079739;28;20267;-80
2022/10/05 02:40:27;;;;;;;4.47;4.07;;;;;;;;;;5077890;28;20282;-80
2022/10/05 02:42:57;;;;;;;5.43;3.83;;;;;;;;;;5076291;28;20639;-80
2022/10/05 02:45:31;;;;;;;4.97;3.83;;;;;;;;;;5078397;28;20337;-80
2022/10/05 02:48:05;;;;;;;6.37;4.10;;;;;;;;;;5080949;28;20660;-80
2022/10/05 02:50:35;;;;;;;5.30;3.80;;;;;;;;;;5079236;28;20223;-80
2022/10/05 02:53:09;;;;;;;4.50;3.90;;;;;;;;;;5088352;28;20227;-80
2022/10/05 02:55:40;;;;;;;4.27;3.87;;;;;;;;;;5091033;28;20286;-80
2022/10/05 02:58:11;;;;;;;3.93;3.57;;;;;;;;;;5082808;28;20283;-80
2022/10/05 03:00:43;;;;;;;5.13;3.90;;;;;;;;;;5075420;28;20326;-80
2022/10/05 03:03:12;;;;;;;4.73;4.13;;;;;;;;;;5090105;28;20631;-80
2022/10/05 03:05:42;;;;;;;8.07;4.20;;;;;;;;;;5076903;28;20282;-80
2022/10/05 03:08:14;;;;;;;6.23;4.13;;;;;;;;;;5091561;28;20224;-80
2022/10/05 03:10:44;;;;;;;4.47;3.90;;;;;;;;;;5087991;28;20282;-80
2022/10/05 03:13:17;;;;;;;4.97;4.07;;;;;;;;;;5082451;28;20199;-81
2022/10/05 03:16:03;;;;;;;4.77;3.80;;;;;;;;;;5078536;28;20277;-80
2022/10/05 03:18:40;;;;;;;4.27;3.63;;;;;;;;;;5080828;28;20227;-80
2022/10/05 03:21:13;;;;;;;5.57;4.00;;;;;;;;;;5077249;28;20195;-80
2022/10/05 03:23:46;;;;;;;4.83;3.73;;;;;;;;;;5087101;28;20233;-80
2022/10/05 03:26:21;;;;;;;5.60;4.17;;;;;;;;;;5086277;28;20282;-80
2022/10/05 03:28:54;;;;;;;4.73;4.00;;;;;;;;;;5086048;28;20218;-80
2022/10/05 03:31:26;;;;;;;5.33;4.23;;;;;;;;;;5089774;28;20724;-80
2022/10/05 03:33:56;;;;;;;6.40;4.30;;;;;;;;;;5080048;28;20282;-80
2022/10/05 03:36:26;;;;;;;6.37;4.37;;;;;;;;;;5090373;28;20202;-80
2022/10/05 03:38:56;;;;;;;8.13;4.27;;;;;;;;;;5094178;28;20226;-80
2022/10/05 03:41:27;;;;;;;4.97;4.20;;;;;;;;;;5095170;28;20279;-79
2022/10/05 03:44:07;;;;;;;5.17;4.67;;;;;;;;;;5080013;28;20237;-80
2022/10/05 03:46:43;;;;;;;6.47;4.33;;;;;;;;;;5087929;28;20281;-80
2022/10/05 03:49:14;;;;;;;9.03;4.40;;;;;;;;;;5087859;28;20210;-80
2022/10/05 03:51:43;;;;;;;6.77;4.90;;;;;;;;;;5077196;28;20628;-81
2022/10/05 03:54:15;;;;;;;6.00;5.03;;;;;;;;;;5089754;28;20230;-80
2022/10/05 03:56:45;;;;;;;7.67;5.60;;;;;;;;;;5081988;28;20222;-80
2022/10/05 03:59:16;;;;;;;6.90;5.33;;;;;;;;;;5090317;28;20253;-80
2022/10/05 04:01:48;;;;;;;7.23;5.40;;;;;;;;;;5090731;28;20224;-80
2022/10/05 04:04:20;;;;;;;7.00;5.27;;;;;;;;;;5074677;28;20230;-80
2022/10/05 04:06:48;;;;;;;6.03;5.43;;;;;;;;;;5075009;28;20199;-80
2022/10/05 04:09:18;;;;;;;5.90;5.30;;;;;;;;;;5091431;28;20268;-80
2022/10/05 04:11:49;;;;;;;7.90;5.27;;;;;;;;;;5090274;28;20233;-79
2022/10/05 04:14:19;;;;;;;7.30;4.87;;;;;;;;;;5078141;28;20291;-80
2022/10/05 04:16:50;;;;;;;6.40;5.20;;;;;;;;;;5080369;28;20281;-80
2022/10/05 04:19:19;;;;;;;6.47;5.20;;;;;;;;;;5094291;28;20281;-79
2022/10/05 04:21:48;;;;;;;7.80;4.73;;;;;;;;;;5092435;28;20285;-80
2022/10/05 04:24:18;;;;;;;7.60;5.10;;;;;;;;;;5080673;28;20281;-80
2022/10/05 04:26:48;;;;;;;7.63;5.20;;;;;;;;;;5093360;28;20643;-80
2022/10/05 04:29:19;;;;;;;8.23;5.20;;;;;;;;;;5088888;28;20227;-80
2022/10/05 04:31:53;;;;;;;5.50;4.77;;;;;;;;;;5082760;28;20673;-81
2022/10/05 04:34:27;;;;;;;5.63;4.53;;;;;;;;;;5075462;28;20278;-80
2022/10/05 04:36:58;;;;;;;5.77;4.60;;;;;;;;;;5077478;28;20239;-81
2022/10/05 04:39:32;;;;;;;5.17;4.27;;;;;;;;;;5083441;28;20281;-80
2022/10/05 04:42:06;;;;;;;6.50;4.57;;;;;;;;;;5087873;28;20628;-80
2022/10/05 04:44:44;;;;;;;5.23;4.40;;;;;;;;;;5075448;28;20199;-80
2022/10/05 04:47:21;;;;;;;4.97;4.40;;;;;;;;;;5084220;28;20230;-80
2022/10/05 04:49:56;;;;;;;5.67;4.10;;;;;;;;;;5074083;28;20306;-80
2022/10/05 04:52:25;;;;;;;4.50;3.83;;;;;;;;;;5075131;28;20685;-80
2022/10/05 04:54:58;;;;;;;6.23;4.00;;;;;;;;;;5078818;28;20673;-81
2022/10/05 04:57:28;;;;;;;3.97;3.57;;;;;;;;;;5074429;28;20233;-81
2022/10/05 05:00:03;;;;;;;4.10;3.70;;;;;;;;;;5082634;28;20218;-80
2022/10/05 05:02:36;;;;;;;4.67;3.73;;;;;;;;;;5077491;28;20206;-80
2022/10/05 05:05:23;;;;;;;4.63;3.80;;;;;;;;;;5084019;28;20234;-82
2022/10/05 05:07:54;;;;;;;5.20;3.40;;;;;;;;;;5073052;28;20727;-81
2022/10/05 05:10:48;;;;;;;4.57;3.43;;;;;;;;;;5076223;28;20241;-82
2022/10/05 05:13:25;;;;;;;3.60;3.30;;;;;;;;;;5050549;28;20235;-82
2022/10/05 05:15:54;;;;;;;4.83;3.60;;;;;;;;;;5079640;28;20643;-82
2022/10/05 05:18:36;;;;;;;4.90;3.80;;;;;;;;;;5086348;28;20217;-82
2022/10/05 05:21:08;;;;;;;5.23;3.90;;;;;;;;;;5073568;28;20282;-82
2022/10/05 05:23:37;;;;;;;5.03;4.00;;;;;;;;;;5090484;28;20226;-83
2022/10/05 05:26:09;;;;;;;4.70;4.20;;;;;;;;;;5085183;28;20703;-82
2022/10/05 05:28:41;;;;;;;5.83;4.70;;;;;;;;;;5085557;28;20214;-81
2022/10/05 05:31:10;;;;;;;4.87;4.40;;;;;;;;;;5081047;28;20213;-82
2022/10/05 05:33:42;;;;;;;6.23;5.03;;;;;;;;;;5085354;28;20218;-81
2022/10/05 05:36:35;;;;;;;5.70;5.10;;;;;;;;;;5080908;28;20290;-81
2022/10/05 05:39:09;;;;;;;7.03;5.13;;;;;;;;;;5087764;28;20230;-81
2022/10/05 05:41:38;;;;;;;7.33;5.47;;;;;;;;;;5078733;28;20226;-82
2022/10/05 05:44:13;;;;;;;7.37;5.17;;;;;;;;;;5086685;28;20216;-82
2022/10/05 05:46:41;;;;;;;6.93;5.33;;;;;;;;;;5079054;28;20202;-80
2022/10/05 05:49:14;;;;;;;5.43;4.93;;;;;;;;;;5086149;28;20297;-81
2022/10/05 05:51:46;;;;;;;6.23;5.23;;;;;;;;;;5092880;28;20576;-81
2022/10/05 05:54:21;;;;;;;7.23;5.43;;;;;;;;;;5090299;28;20198;-81
2022/10/05 05:56:50;;;;;;;5.83;5.20;;;;;;;;;;5076612;28;20277;-80
2022/10/05 05:59:19;;;;;;;7.50;5.27;;;;;;;;;;5085094;28;20743;-81
2022/10/05 06:01:49;;;;;;;6.43;5.20;;;;;;;;;;5084714;28;20195;-80
2022/10/05 06:04:17;;;;;;;5.83;5.03;;;;;;;;;;5082537;28;20205;-80
2022/10/05 06:06:48;;;;;;;7.60;5.10;;;;;;;;;;5084726;28;20626;-80
2022/10/05 06:09:17;;;;;;;6.20;5.33;;;;;;;;;;5086788;28;20776;-81
2022/10/05 06:11:47;;;;;;;7.80;5.23;;;;;;;;;;5086565;28;20290;-80
2022/10/05 06:14:17;;;;;;;6.50;5.03;;;;;;;;;;5087409;28;20281;-80
2022/10/05 06:16:46;;;;;;;7.27;4.97;;;;;;;;;;5087214;28;20285;-80
2022/10/05 06:19:15;;;;;;;8.97;5.33;;;;;;;;;;5090435;28;20194;-80
2022/10/05 06:21:45;;;;;;;8.77;4.97;;;;;;;;;;5086803;28;20225;-80
2022/10/05 06:24:16;;;;;;;6.47;4.83;;;;;;;;;;5086137;28;20290;-80
2022/10/05 06:27:03;;;;;;;6.33;4.67;;;;;;;;;;5089522;28;20203;-79
2022/10/05 06:29:35;;;;;;;7.13;4.93;;;;;;;;;;5085488;28;20305;-80
2022/10/05 06:32:06;;;;;;;8.10;4.73;;;;;;;;;;5088744;28;20293;-80
2022/10/05 06:34:41;;;;;;;7.13;4.90;;;;;;;;;;5089275;28;20261;-81
2022/10/05 06:37:12;;;;;;;8.70;5.30;;;;;;;;;;5089720;28;20289;-81
2022/10/05 06:39:47;;;;;;;7.00;4.83;;;;;;;;;;5089528;28;20612;-81
2022/10/05 06:42:24;;;;;;;7.10;4.80;;;;;;;;;;5087308;28;20233;-80
2022/10/05 06:44:54;;;;;;;5.00;4.47;;;;;;;;;;5088100;28;20281;-80
2022/10/05 06:47:28;;;;;;;7.40;4.23;;;;;;;;;;5088506;28;20298;-81
2022/10/05 06:49:59;;;;;;;5.40;4.13;;;;;;;;;;5090237;28;20309;-80
2022/10/05 06:52:27;;;;;;;7.83;4.47;;;;;;;;;;5090655;28;20237;-80
2022/10/05 06:55:02;;;;;;;5.90;4.43;;;;;;;;;;5088650;28;20282;-80
2022/10/05 06:57:42;;;;;;;6.00;4.50;;;;;;;;;;5087740;28;20707;-80
2022/10/05 07:00:16;;;;;;;4.87;4.00;;;;;;;;;;5087597;28;20305;-80
2022/10/05 07:02:46;;;;;;;5.40;4.20;;;;;;;;;;5090392;28;20284;-80
2022/10/05 07:05:31;;;;;;;7.37;4.33;;;;;;;;;;5085385;28;20746;-81
2022/10/05 07:08:00;;;;;;;5.90;3.77;;;;;;;;;;5088975;28;20864;-81
2022/10/05 07:10:32;;;;;;;5.30;3.63;;;;;;;;;;5077744;28;20273;-81
2022/10/05 07:13:07;;;;;;;5.97;4.10;;;;;;;;;;5089608;28;20199;-81
2022/10/05 07:15:41;;;;;;;4.73;4.30;;;;;;;;;;5088089;28;20226;-82
2022/10/05 07:18:26;;;;;;;7.53;4.13;;;;;;;;;;5078059;28;20208;-81
2022/10/05 07:20:56;;;;;;;6.77;4.27;;;;;;;;;;5079708;28;20191;-81
2022/10/05 07:23:27;;;;;;;6.07;4.00;;;;;;;;;;5074651;28;20205;-81
2022/10/05 07:26:01;;;;;;;5.40;4.13;;;;;;;;;;5078734;28;20202;-81
2022/10/05 07:28:32;;;;;;;7.23;4.00;;;;;;;;;;5081794;28;20273;-81
2022/10/05 07:31:03;;;;;;;6.70;4.00;;;;;;;;;;5080177;28;20233;-81
2022/10/05 07:33:34;;;;;;;6.87;3.70;;;;;;;;;;5080318;28;20281;-81
2022/10/05 07:38:55;;;;;;;7.80;3.60;;;;;;;;;;5083113;28;20576;-81
2022/10/05 07:41:26;;;;;;;4.70;4.03;;;;;;;;;;5079779;28;20283;-80
2022/10/05 07:43:56;;;;;;;5.57;3.87;;;;;;;;;;5077206;28;20210;-81
2022/10/05 07:46:27;;;;;;;5.63;3.67;;;;;;;;;;5085165;28;20295;-80
2022/10/05 07:49:02;;;;;;;4.28;3.45;;;;;;;;;;5089348;28;20256;-81
2022/10/05 07:51:34;;;;;;;6.57;3.50;;;;;;;;;;5076696;28;20237;-80
2022/10/05 07:54:07;;;;;;;5.55;3.40;;;;;;;;;;5091531;28;20197;-81
2022/10/05 07:56:38;;;;;;;7.10;3.00;;;;;;;;;;5090626;28;20289;-81
2022/10/05 07:59:07;;;;;;;6.20;2.80;;;;;;;;;;5074217;28;20230;-81
2022/10/05 08:01:36;;;;;;;4.80;3.10;;;;;;;;;;5076113;28;20296;-81
2022/10/05 08:04:07;;;;;;;5.18;2.72;;;;;;;;;;5090746;28;20236;-81
2022/10/05 08:06:41;;;;;;;3.67;3.10;;;;;;;;;;5078030;28;20316;-81
2022/10/05 08:09:13;;;;;;;5.03;3.00;;;;;;;;;;5082428;28;20202;-81
2022/10/05 08:11:48;;;;;;;4.97;3.25;;;;;;;;;;5078917;28;20605;-81
2022/10/05 08:14:20;;;;;;;7.38;3.33;;;;;;;;;;5086639;28;20697;-80
2022/10/05 08:16:48;;;;;;;6.82;3.10;;;;;;;;;;5083331;28;20708;-81
2022/10/05 08:19:18;;;;;;;5.40;2.35;;;;;;;;;;5079231;28;20616;-80
2022/10/05 08:21:48;;;;;;;5.15;2.90;;;;;;;;;;5080609;28;20226;-80
2022/10/05 08:24:19;;;;;;;4.72;2.72;;;;;;;;;;5083932;28;20230;-80
2022/10/05 08:26:52;;;;;;;4.72;3.30;;;;;;;;;;5076469;28;20286;-81
2022/10/05 08:29:22;;;;;;;4.80;2.97;;;;;;;;;;5073582;28;20250;-80
2022/10/05 08:31:51;;;;;;;5.20;3.00;;;;;;;;;;5074880;28;20509;-80
2022/10/05 08:34:21;;;;;;;4.80;3.03;;;;;;;;;;5073863;28;20199;-81
2022/10/05 08:36:52;;;;;;;6.65;2.92;;;;;;;;;;5073225;28;20282;-80
2022/10/05 08:39:21;;;;;;;6.20;2.88;;;;;;;;;;5076976;28;20683;-80
2022/10/05 08:42:08;;;;;;;3.95;2.70;;;;;;;;;;5086056;28;20201;-80
2022/10/05 08:44:51;;;;;;;4.72;2.72;;;;;;;;;;5085853;28;20202;-80
2022/10/05 08:47:35;;;;;;;4.75;2.50;;;;;;;;;;5075713;28;20661;-80
2022/10/05 08:50:17;;;;;;;5.10;2.35;;;;;;;;;;5047730;28;20215;-80
2022/10/05 08:53:01;;;;;;;4.97;2.83;;;;;;;;;;5040296;28;20287;-79
2022/10/05 08:55:31;;;;;;;4.43;3.00;;;;;;;;;;5042238;28;20302;-80
2022/10/05 08:58:13;;;;;;;6.47;3.13;;;;;;;;;;5046036;28;20732;-80
2022/10/05 09:00:47;;;;;;;5.38;3.10;;;;;;;;;;5027756;28;20220;-80
2022/10/05 09:03:29;;;;;;;5.43;3.25;;;;;;;;;;5039722;28;20197;-79
2022/10/05 09:06:17;;;;;;;4.65;3.45;;;;;;;;;;5036255;28;20192;-81
2022/10/05 09:08:53;;;;;;;7.72;3.42;;;;;;;;;;5039500;28;20227;-80
2022/10/05 09:11:21;;;;;;;4.30;3.60;;;;;;;;;;5037209;28;20223;-80
2022/10/05 09:14:04;;;;;;;6.93;3.08;;;;;;;;;;5047971;28;20286;-81
2022/10/05 09:16:54;;;;;;;4.30;3.10;;;;;;;;;;5045778;28;20227;-81
2022/10/05 09:19:42;;;;;;;5.78;3.08;;;;;;;;;;5032222;28;20629;-81
2022/10/05 09:22:14;;;;;;;5.00;2.70;;;;;;;;;;5046458;28;20195;-82
2022/10/05 09:24:55;;;;;;;5.03;2.63;;;;;;;;;;5029824;28;20192;-81
2022/10/05 09:27:30;;;;;;;8.52;2.63;;;;;;;;;;5059905;28;20202;-80
2022/10/05 09:30:16;;;;;;;4.97;2.50;;;;;;;;;;5082904;28;20314;-81
2022/10/05 09:33:12;;;;;;;4.53;2.30;;;;;;;;;;5072733;28;20546;-81
2022/10/05 09:35:57;;;;;;;5.25;2.50;;;;;;;;;;5059521;28;20209;-81
2022/10/05 09:38:29;;;;;;;5.40;1.95;;;;;;;;;;5079190;28;20287;-81
2022/10/05 09:41:10;;;;;;;4.00;2.28;;;;;;;;;;5079086;28;20638;-81
2022/10/05 09:44:10;;;;;;;8.25;2.45;;;;;;;;;;5084672;28;20206;-80
2022/10/05 09:46:46;;;;;;;4.00;2.08;;;;;;;;;;5077912;28;20269;-80
2022/10/05 09:49:20;;;;;;;7.10;2.50;;;;;;;;;;5088425;28;20194;-80
2022/10/05 09:51:59;;;;;;;5.68;2.15;;;;;;;;;;5080096;28;20661;-81
2022/10/05 09:54:43;;;;;;;5.88;2.03;;;;;;;;;;5083361;28;20576;-81
2022/10/05 09:57:31;;;;;;;4.43;2.05;;;;;;;;;;5072932;28;20692;-81
2022/10/05 10:00:15;;;;;;;4.18;1.80;;;;;;;;;;5073109;28;20683;-81
2022/10/05 10:02:57;;;;;;;6.88;2.05;;;;;;;;;;5072700;28;20373;-81
2022/10/05 10:05:32;;;;;;;5.90;2.15;;;;;;;;;;5081631;28;20221;-80
2022/10/05 10:08:06;;;;;;;5.40;2.10;;;;;;;;;;5071864;28;20737;-81
2022/10/05 10:10:51;;;;;;;7.30;2.20;;;;;;;;;;5076988;28;20766;-80
2022/10/05 10:13:38;;;;;;;5.63;2.28;;;;;;;;;;5077647;28;20203;-80
2022/10/05 10:16:13;;;;;;;7.32;2.13;;;;;;;;;;5088221;28;20218;-80
2022/10/05 10:18:59;;;;;;;3.03;1.63;;;;;;;;;;5078077;28;20235;-80
2022/10/05 10:21:45;;;;;;;6.85;1.80;;;;;;;;;;5078357;28;20229;-80
2022/10/05 10:24:16;;;;;;;4.35;1.70;;;;;;;;;;5082700;28;20251;-80
2022/10/05 10:26:51;;;;;;;4.68;1.90;;;;;;;;;;5089801;28;20209;-80
2022/10/05 10:29:38;;;;;;;7.93;1.98;;;;;;;;;;5077128;28;20257;-80
2022/10/05 10:32:24;;;;;;;3.05;1.80;;;;;;;;;;5079174;28;20234;-81
2022/10/05 10:35:17;;;;;;;5.03;2.00;;;;;;;;;;5082958;28;20696;-80
2022/10/05 10:38:03;;;;;;;4.65;2.15;;;;;;;;;;5078588;28;20229;-80
2022/10/05 10:40:35;;;;;;;4.03;1.80;;;;;;;;;;5075001;28;20191;-80
2022/10/05 10:43:21;;;;;;;6.55;2.03;;;;;;;;;;5075150;28;20219;-80
2022/10/05 10:45:53;;;;;;;3.88;2.00;;;;;;;;;;5079528;28;20195;-80
2022/10/05 10:48:39;;;;;;;3.75;2.00;;;;;;;;;;5078287;28;20199;-80
2022/10/05 10:51:14;;;;;;;6.30;1.75;;;;;;;;;;5078855;28;20404;-80
2022/10/05 10:54:02;;;;;;;6.43;2.00;;;;;;;;;;5082139;28;20289;-80
2022/10/05 10:56:50;;;;;;;4.40;1.65;;;;;;;;;;5074994;28;20195;-80
2022/10/05 10:59:40;;;;;;;5.50;1.65;;;;;;;;;;5036927;28;20322;-80
2022/10/05 11:02:27;;;;;;;3.08;1.40;;;;;;;;;;5040232;28;20196;-82
2022/10/05 11:05:04;;;;;;;4.90;1.52;;;;;;;;;;5038203;28;20747;-81
2022/10/05 11:07:58;;;;;;;5.25;1.40;;;;;;;;;;5039829;28;20715;-80
2022/10/05 11:10:38;;;;;;;6.57;1.77;;;;;;;;;;5037231;28;20227;-81
2022/10/05 11:13:15;;;;;;;2.70;1.65;;;;;;;;;;5040670;28;20282;-81
2022/10/05 11:15:52;;;;;;;4.95;1.55;;;;;;;;;;5041598;28;20729;-80
2022/10/05 11:18:22;;;;;;;6.38;1.50;;;;;;;;;;5045623;28;20622;-81
2022/10/05 11:21:00;;;;;;;6.78;1.65;;;;;;;;;;5042370;28;20318;-81
2022/10/05 11:23:34;;;;;;;4.80;1.60;;;;;;;;;;5032826;28;20239;-81
2022/10/05 11:26:15;;;;;;;4.85;1.83;;;;;;;;;;5035020;28;20242;-81
2022/10/05 11:28:52;;;;;;;5.95;1.40;;;;;;;;;;5043311;28;20278;-81
2022/10/05 11:31:37;;;;;;;6.78;1.50;;;;;;;;;;5037682;28;20259;-81
2022/10/05 11:34:26;;;;;;;4.88;1.35;;;;;;;;;;5042110;28;20583;-81
2022/10/05 11:37:03;;;;;;;4.00;1.60;;;;;;;;;;5080120;28;20226;-80
2022/10/05 11:39:37;;;;;;;5.57;1.70;;;;;;;;;;5078383;28;20267;-81
2022/10/05 11:42:19;;;;;;;4.93;1.30;;;;;;;;;;5084051;28;20195;-81
2022/10/05 11:45:06;;;;;;;3.55;1.42;;;;;;;;;;5085295;28;20244;-83
2022/10/05 11:47:38;;;;;;;5.53;1.40;;;;;;;;;;5088322;28;20223;-82
2022/10/05 11:50:12;;;;;;;5.68;1.30;;;;;;;;;;5082121;28;20248;-82
2022/10/05 11:52:40;;;;;;;7.13;1.80;;;;;;;;;;5077785;28;20709;-82
2022/10/05 11:55:18;;;;;;;5.57;1.45;;;;;;;;;;5089943;28;20205;-82
2022/10/05 11:57:49;;;;;;;5.75;1.52;;;;;;;;;;5084390;28;20201;-82
2022/10/05 12:00:18;;;;;;;4.93;1.40;;;;;;;;;;5089815;28;20230;-82
2022/10/05 12:02:59;;;;;;;7.70;1.77;;;;;;;;;;5085590;28;20194;-82
2022/10/05 12:05:32;;;;;;;6.88;1.52;;;;;;;;;;5089363;28;20240;-82
2022/10/05 12:08:17;;;;;;;3.33;1.33;;;;;;;;;;5079531;28;20205;-82
2022/10/05 12:10:49;;;;;;;5.85;1.80;;;;;;;;;;5085543;28;20280;-82
2022/10/05 12:13:25;;;;;;;6.07;1.70;;;;;;;;;;5081623;28;20234;-82
2022/10/05 12:15:55;;;;;;;5.35;1.70;;;;;;;;;;5084102;28;20576;-82
2022/10/05 12:18:40;;;;;;;7.75;1.70;;;;;;;;;;5087456;28;20278;-82
2022/10/05 12:21:13;;;;;;;9.07;2.00;;;;;;;;;;5084383;28;20281;-83
2022/10/05 12:23:43;;;;;;;7.95;1.73;;;;;;;;;;5085458;28;20197;-82
2022/10/05 12:26:12;;;;;;;5.32;1.60;;;;;;;;;;5077549;28;20217;-81
2022/10/05 12:28:42;;;;;;;5.45;2.17;;;;;;;;;;5083559;28;20627;-82
2022/10/05 12:31:15;;;;;;;4.57;1.70;;;;;;;;;;5085597;28;20657;-82
2022/10/05 12:33:47;;;;;;;6.65;1.48;;;;;;;;;;5083504;28;20290;-82
2022/10/05 12:36:15;;;;;;;8.07;1.80;;;;;;;;;;5079057;28;20642;-82
2022/10/05 12:38:45;;;;;;;6.97;1.98;;;;;;;;;;5081349;28;20277;-82
2022/10/05 12:41:18;;;;;;;6.93;1.63;;;;;;;;;;5082427;28;20203;-82
2022/10/05 12:43:50;;;;;;;7.82;1.50;;;;;;;;;;5089911;28;20256;-82
2022/10/05 12:46:22;;;;;;;5.82;1.85;;;;;;;;;;5085352;28;20223;-82
2022/10/05 12:48:56;;;;;;;6.22;1.58;;;;;;;;;;5082403;28;20273;-82
2022/10/05 12:51:27;;;;;;;6.03;2.00;;;;;;;;;;5090176;28;20254;-82
2022/10/05 12:53:56;;;;;;;9.98;2.22;;;;;;;;;;5079123;28;20234;-82
2022/10/05 12:56:28;;;;;;;8.55;2.45;;;;;;;;;;5088016;28;20738;-82
2022/10/05 12:59:00;;;;;;;7.28;2.63;;;;;;;;;;5091968;28;20277;-82
2022/10/05 13:01:32;;;;;;;7.90;3.42;;;;;;;;;;5093243;28;20600;-82
2022/10/05 13:04:04;;;;;;;7.95;2.55;;;;;;;;;;5088651;28;20206;-82
2022/10/05 13:06:39;;;;;;;8.13;2.97;;;;;;;;;;5088291;28;20212;-82
2022/10/05 13:09:09;;;;;;;9.50;3.00;;;;;;;;;;5091483;28;20280;-82
2022/10/05 13:11:39;;;;;;;13.63;3.40;;;;;;;;;;5088518;28;20269;-82
2022/10/05 13:14:15;;;;;;;7.72;2.35;;;;;;;;;;5081815;28;20216;-82
2022/10/05 13:16:45;;;;;;;7.90;3.10;;;;;;;;;;5091410;28;20749;-82
2022/10/05 13:19:23;;;;;;;8.38;2.28;;;;;;;;;;5083946;28;20240;-82
2022/10/05 13:21:58;;;;;;;5.82;1.83;;;;;;;;;;5071675;28;20643;-82
2022/10/05 13:24:27;;;;;;;6.97;1.85;;;;;;;;;;5071872;28;20285;-82
2022/10/05 13:26:59;;;;;;;8.98;2.30;;;;;;;;;;5082589;28;20186;-83
2022/10/05 13:29:31;;;;;;;8.32;2.20;;;;;;;;;;5080677;28;20594;-81
2022/10/05 13:32:01;;;;;;;5.95;1.70;;;;;;;;;;5091818;28;20217;-82
2022/10/05 13:34:34;;;;;;;6.28;1.83;;;;;;;;;;5082162;28;20242;-82
2022/10/05 13:37:06;;;;;;;7.78;1.83;;;;;;;;;;5080454;28;20725;-82
2022/10/05 13:39:50;;;;;;;8.90;2.03;;;;;;;;;;5079725;28;20286;-82
2022/10/05 13:42:19;;;;;;;7.85;2.08;;;;;;;;;;5074246;28;20227;-83
2022/10/05 13:44:48;;;;;;;8.70;2.20;;;;;;;;;;5081844;28;20632;-82
2022/10/05 13:47:20;;;;;;;7.05;2.10;;;;;;;;;;5088258;28;20248;-82
2022/10/05 13:49:52;;;;;;;9.18;2.90;;;;;;;;;;5078630;28;20239;-82
2022/10/05 13:52:27;;;;;;;8.57;2.47;;;;;;;;;;5088884;28;20250;-83
2022/10/05 13:54:57;;;;;;;9.48;2.50;;;;;;;;;;5078206;28;20616;-81
2022/10/05 13:57:29;;;;;;;6.78;2.17;;;;;;;;;;5081807;28;20230;-81
2022/10/05 13:59:58;;;;;;;7.50;2.50;;;;;;;;;;5075850;28;20717;-80
2022/10/05 14:02:29;;;;;;;7.22;2.40;;;;;;;;;;5087081;28;20217;-80
2022/10/05 14:05:00;;;;;;;5.35;2.08;;;;;;;;;;5078033;28;20194;-80
2022/10/05 14:07:32;;;;;;;8.07;2.53;;;;;;;;;;5072714;28;20191;-82
2022/10/05 14:10:00;;;;;;;5.75;3.10;;;;;;;;;;5076964;28;20199;-81
2022/10/05 14:12:28;;;;;;;8.40;2.35;;;;;;;;;;5090465;28;20612;-82
2022/10/05 14:14:55;;;;;;;5.63;1.92;;;;;;;;;;5075765;28;20285;-82
2022/10/05 14:17:36;;;;;;;7.80;2.10;;;;;;;;;;5081649;28;20226;-81
2022/10/05 14:20:17;;;;;;;6.13;2.47;;;;;;;;;;5076851;28;20283;-81
2022/10/05 14:22:46;;;;;;;6.40;2.40;;;;;;;;;;5072317;28;20222;-82
2022/10/05 14:25:17;;;;;;;6.32;2.10;;;;;;;;;;5078989;28;20236;-81
2022/10/05 14:27:49;;;;;;;8.25;2.20;;;;;;;;;;5084151;28;20779;-82
2022/10/05 14:30:22;;;;;;;6.25;2.10;;;;;;;;;;5078134;28;20227;-82
2022/10/05 14:32:52;;;;;;;5.78;2.58;;;;;;;;;;5082951;28;20649;-81
2022/10/05 14:35:22;;;;;;;9.20;2.88;;;;;;;;;;5093505;28;20281;-81
2022/10/05 14:37:51;;;;;;;10.65;4.45;;;;;;;;;;5084120;28;20198;-81
2022/10/05 14:40:23;;;;;;;14.05;4.45;;;;;;;;;;5082313;28;20223;-80
2022/10/05 14:42:50;;;;;;;7.35;3.83;;;;;;;;;;5086430;28;20270;-81
2022/10/05 14:45:19;;;;;;;6.63;3.47;;;;;;;;;;5095910;28;20202;-81
2022/10/05 14:47:48;;;;;;;12.05;3.15;;;;;;;;;;5095745;28;20734;-81
2022/10/05 14:50:17;;;;;;;8.63;2.50;;;;;;;;;;5096099;28;20229;-82
2022/10/05 14:52:50;;;;;;;8.68;2.60;;;;;;;;;;5095495;28;20309;-81
2022/10/05 14:55:36;;;;;;;6.90;2.85;;;;;;;;;;5085663;28;20630;-82
2022/10/05 14:58:08;;;;;;;6.53;2.60;;;;;;;;;;5083966;28;20308;-81
2022/10/05 15:00:40;;;;;;;5.22;2.15;;;;;;;;;;5082895;28;20223;-81
2022/10/05 15:03:21;;;;;;;5.88;2.17;;;;;;;;;;5086487;28;20277;-81
2022/10/05 15:05:50;;;;;;;5.55;2.35;;;;;;;;;;5084283;28;20198;-81
2022/10/05 15:08:37;;;;;;;7.18;2.72;;;;;;;;;;5084055;28;21152;-82
2022/10/05 15:11:07;;;;;;;5.95;3.08;;;;;;;;;;5087678;28;20253;-82
2022/10/05 15:13:36;;;;;;;7.90;3.88;;;;;;;;;;5082513;28;20222;-85
2022/10/05 15:16:06;;;;;;;7.00;3.58;;;;;;;;;;5086911;28;20284;-82
2022/10/05 15:18:37;;;;;;;7.80;3.40;;;;;;;;;;5089878;28;20662;-82
2022/10/05 15:21:10;;;;;;;5.18;2.80;;;;;;;;;;5094627;28;21154;-82
2022/10/05 15:23:41;;;;;;;5.03;3.03;;;;;;;;;;5081244;28;20253;-82
2022/10/05 15:26:15;;;;;;;4.72;2.72;;;;;;;;;;5083994;28;20198;-81